Time;durP1;ratioP1;P1;durP2;ratioP2;P2;SDS_P1;SDS_P2;PMS_P1;PMS_P2;Temp;Humidity;BMP_temperature;BMP_pressure;BME280_temperature;BME280_humidity;BME280_pressure;Samples;Min_cycle;Max_cycle;Signal;HPM_P1;HPM_P2
2021/01/13 00:01:39;;;;;;;116.75;47.75;;;51.80;2227.20;;;;;;5112248;28;20031;-70
2021/01/13 00:04:05;;;;;;;123.45;49.40;;;51.90;2227.20;;;;;;5106443;28;20043;-70
2021/01/13 00:06:32;;;;;;;103.05;44.50;;;51.80;2227.20;;;;;;5103768;28;20032;-72
2021/01/13 00:08:57;;;;;;;112.28;47.55;;;51.90;2227.20;;;;;;5099279;28;20028;-67
2021/01/13 00:11:23;;;;;;;109.60;46.72;;;51.80;2227.20;;;;;;5110621;28;20077;-69
2021/01/13 00:13:49;;;;;;;112.70;46.28;;;51.90;2227.20;;;;;;5109471;28;20030;-70
2021/01/13 00:16:15;;;;;;;114.32;47.00;;;51.80;2227.20;;;;;;5110750;28;20050;-69
2021/01/13 00:18:41;;;;;;;112.70;47.45;;;52.00;2227.20;;;;;;5112546;28;20027;-68
2021/01/13 00:21:16;;;;;;;107.43;45.17;;;52.10;2227.20;;;;;;5104794;28;20037;-69
2021/01/13 00:23:46;;;;;;;117.28;46.65;;;52.10;2227.20;;;;;;5113980;28;20024;-69
2021/01/13 00:26:22;;;;;;;109.35;43.45;;;52.10;2227.20;;;;;;5110320;28;20023;-70
2021/01/13 00:28:49;;;;;;;104.80;45.97;;;52.00;2227.20;;;;;;5095843;28;20110;-70
2021/01/13 00:31:14;;;;;;;111.45;47.65;;;52.00;2227.20;;;;;;5112790;28;20031;-71
2021/01/13 00:33:44;;;;;;;118.40;51.30;;;52.00;2227.20;;;;;;5112662;28;20038;-67
2021/01/13 00:36:16;;;;;;;112.63;48.67;;;51.80;2227.20;;;;;;5100326;28;20032;-69
2021/01/13 00:38:41;;;;;;;114.03;50.60;;;52.00;2227.20;;;;;;5081817;28;20510;-68
2021/01/13 00:41:07;;;;;;;114.57;48.30;;;52.10;2227.20;;;;;;5095300;28;20099;-67
2021/01/13 00:43:33;;;;;;;114.43;47.72;;;51.90;2227.20;;;;;;5094681;28;20024;-67
2021/01/13 00:45:58;;;;;;;99.30;41.45;;;52.00;2227.20;;;;;;5104366;28;20427;-67
2021/01/13 00:48:25;;;;;;;91.05;39.00;;;52.10;2227.20;;;;;;5080931;28;20433;-67
2021/01/13 00:50:50;;;;;;;94.60;40.83;;;76.80;2201.60;;;;;;5095352;28;20466;-70
2021/01/13 00:53:16;;;;;;;94.28;38.47;;;51.70;2227.20;;;;;;5108237;28;20058;-67
2021/01/13 00:55:42;;;;;;;105.75;46.13;;;51.80;2227.20;;;;;;5115480;28;20031;-71
2021/01/13 00:58:07;;;;;;;74.50;30.77;;;51.80;2227.20;;;;;;5115440;28;20055;-71
2021/01/13 01:00:33;;;;;;;81.05;34.28;;;51.90;2227.20;;;;;;5115032;28;20078;-70
2021/01/13 01:02:59;;;;;;;84.18;36.25;;;51.90;2227.20;;;;;;5115238;28;20027;-69
2021/01/13 01:05:24;;;;;;;94.10;37.95;;;52.00;2227.20;;;;;;5115058;28;20055;-70
2021/01/13 01:07:51;;;;;;;87.28;41.20;;;52.10;2227.20;;;;;;5115382;28;20039;-73
2021/01/13 01:10:29;;;;;;;90.03;37.60;;;52.10;2227.20;;;;;;5115763;28;20028;-72
2021/01/13 01:12:55;;;;;;;79.53;35.05;;;76.80;2227.20;;;;;;5089456;28;20015;-72
2021/01/13 01:15:20;;;;;;;82.90;36.97;;;52.10;2201.60;;;;;;5115785;28;20536;-71
2021/01/13 01:17:46;;;;;;;84.50;37.00;;;52.10;2227.20;;;;;;5115273;28;20026;-72
2021/01/13 01:20:12;;;;;;;69.60;31.27;;;76.80;2201.60;;;;;;5115716;28;20028;-70
2021/01/13 01:22:50;;;;;;;72.50;34.10;;;76.80;2201.60;;;;;;5095476;28;20497;-72
2021/01/13 01:25:16;;;;;;;69.28;30.83;;;52.00;2227.20;;;;;;5095585;28;20442;-72
2021/01/13 01:27:41;;;;;;;67.53;28.10;;;76.80;2201.60;;;;;;5095458;28;20059;-72
2021/01/13 01:30:08;;;;;;;58.72;27.25;;;52.10;2201.60;;;;;;5095752;28;20086;-73
2021/01/13 01:32:33;;;;;;;67.47;29.98;;;51.80;2201.60;;;;;;5097204;28;20046;-72
2021/01/13 01:34:59;;;;;;;72.85;29.70;;;51.90;2201.60;;;;;;5096640;28;20529;-72
2021/01/13 01:37:25;;;;;;;63.17;28.52;;;52.10;2201.60;;;;;;5097101;28;20035;-75
2021/01/13 01:39:51;;;;;;;70.05;29.75;;;76.80;2176.00;;;;;;5096643;28;20015;-75
2021/01/13 01:42:16;;;;;;;63.15;27.95;;;76.90;2176.00;;;;;;5096710;28;20024;-74
2021/01/13 01:44:42;;;;;;;65.35;28.92;;;76.80;2176.00;;;;;;5107441;28;20405;-72
2021/01/13 01:47:10;;;;;;;60.85;26.63;;;76.90;2176.00;;;;;;5095908;28;20028;-74
2021/01/13 01:49:38;;;;;;;58.65;25.20;;;76.80;2176.00;;;;;;5091672;28;20051;-71
2021/01/13 01:52:15;;;;;;;68.32;31.75;;;76.90;2150.40;;;;;;5095787;28;20031;-74
2021/01/13 01:54:55;;;;;;;65.10;29.48;;;77.00;2124.80;;;;;;5111664;28;20059;-75
2021/01/13 01:57:24;;;;;;;64.97;29.10;;;77.00;2150.40;;;;;;5095669;28;20359;-71
2021/01/13 02:00:04;;;;;;;69.30;29.85;;;76.90;2176.00;;;;;;5095712;28;20028;-73
2021/01/13 02:02:52;;;;;;;63.85;28.67;;;76.90;2150.40;;;;;;5096841;28;20046;-68
2021/01/13 02:05:19;;;;;;;;;;;77.10;2099.20;;;;;;5096882;28;20052;-73
2021/01/13 02:07:48;;;;;;;69.18;31.10;;;76.90;2150.40;;;;;;5106087;28;19916;-70
2021/01/13 02:10:14;;;;;;;71.88;30.85;;;51.90;2227.20;;;;;;5121855;28;20042;-73
2021/01/13 02:12:51;;;;;;;63.72;26.23;;;51.90;2201.60;;;;;;5117601;28;20023;-73
2021/01/13 02:15:17;;;;;;;57.15;26.23;;;52.10;2176.00;;;;;;5087001;28;20055;-75
2021/01/13 02:17:46;;;;;;;51.88;22.27;;;51.90;2201.60;;;;;;5114239;28;20023;-72
2021/01/13 02:20:13;;;;;;;;;;;52.10;2176.00;;;;;;5101073;28;20020;-68
2021/01/13 02:22:58;;;;;;;52.65;22.63;;;76.80;2124.80;;;;;;5099974;28;19912;-74
2021/01/13 02:26:01;;;;;;;48.53;23.30;;;76.90;2124.80;;;;;;5112588;28;20030;-73
2021/01/13 02:28:28;;;;;;;56.45;25.13;;;76.90;2124.80;;;;;;5088430;28;20024;-71
2021/01/13 02:31:03;;;;;;;52.47;23.25;;;76.90;2124.80;;;;;;5097350;28;20379;-69
2021/01/13 02:33:48;;;;;;;52.80;25.20;;;76.80;2124.80;;;;;;5093418;28;20039;-72
2021/01/13 02:36:33;;;;;;;60.90;26.02;;;76.90;2124.80;;;;;;5093501;28;20042;-73
2021/01/13 02:39:01;;;;;;;55.58;23.85;;;76.80;2176.00;;;;;;5093230;28;20097;-71
2021/01/13 02:41:31;;;;;;;50.97;23.23;;;76.80;2150.40;;;;;;5096995;28;20023;-71
2021/01/13 02:43:59;;;;;;;58.58;27.52;;;52.10;2150.40;;;;;;5102548;28;20054;-71
2021/01/13 02:46:55;;;;;;;56.05;26.92;;;76.80;2150.40;;;;;;5093071;28;20540;-68
2021/01/13 02:49:25;;;;;;;65.45;27.27;;;76.90;2150.40;;;;;;5092683;28;20206;-71
2021/01/13 02:51:55;;;;;;;60.03;25.75;;;76.80;2150.40;;;;;;5074674;28;20382;-70
2021/01/13 02:54:27;;;;;;;60.90;28.38;;;76.90;2150.40;;;;;;5093216;28;20028;-69
2021/01/13 02:56:55;;;;;;;66.90;28.70;;;76.90;2150.40;;;;;;5111988;28;20555;-69
2021/01/13 02:59:22;;;;;;;66.78;28.30;;;76.80;2150.40;;;;;;5113400;28;20028;-70
2021/01/13 03:01:49;;;;;;;62.45;29.00;;;76.80;2150.40;;;;;;5112950;28;20470;-71
2021/01/13 03:04:15;;;;;;;63.45;28.55;;;52.10;2201.60;;;;;;5113150;28;20044;-72
2021/01/13 03:06:45;;;;;;;56.45;24.23;;;52.10;2176.00;;;;;;5112770;28;20096;-70
2021/01/13 03:09:12;;;;;;;56.00;24.38;;;76.90;2124.80;;;;;;5113255;28;20034;-70
2021/01/13 03:11:39;;;;;;;55.95;24.65;;;76.90;2124.80;;;;;;5113026;28;20023;-69
2021/01/13 03:14:11;;;;;;;58.72;25.33;;;76.90;2124.80;;;;;;5112939;28;20035;-69
2021/01/13 03:16:45;;;;;;;61.63;25.95;;;76.80;2150.40;;;;;;5113448;28;20027;-68
2021/01/13 03:19:25;;;;;;;61.03;27.67;;;76.80;2150.40;;;;;;5092993;28;20012;-70
2021/01/13 03:22:07;;;;;;;69.38;28.52;;;76.80;2150.40;;;;;;5092610;28;20028;-71
2021/01/13 03:24:40;;;;;;;63.17;28.23;;;76.80;2150.40;;;;;;5080113;28;20478;-70
2021/01/13 03:27:08;;;;;;;77.90;33.38;;;52.00;2176.00;;;;;;5092271;28;20065;-71
2021/01/13 03:29:36;;;;;;;69.90;28.85;;;51.90;2201.60;;;;;;5092856;28;20095;-71
2021/01/13 03:32:07;;;;;;;65.13;29.30;;;51.90;2201.60;;;;;;5093878;28;20136;-70
2021/01/13 03:34:53;;;;;;;69.30;30.88;;;52.00;2201.60;;;;;;5112991;28;20026;-72
2021/01/13 03:37:25;;;;;;;88.07;33.33;;;52.10;2201.60;;;;;;5108930;28;20123;-73
2021/01/13 03:39:56;;;;;;;83.32;34.42;;;76.80;2176.00;;;;;;5078022;28;20462;-68
2021/01/13 03:42:23;;;;;;;75.65;32.97;;;76.90;2176.00;;;;;;5092617;28;20020;-69
2021/01/13 03:44:49;;;;;;;78.45;31.85;;;76.90;2176.00;;;;;;5104751;28;20166;-71
2021/01/13 03:47:30;;;;;;;66.10;31.73;;;76.90;2176.00;;;;;;5112940;28;20016;-70
2021/01/13 03:50:13;;;;;;;64.97;30.90;;;77.00;2176.00;;;;;;5114834;28;20027;-72
2021/01/13 03:52:54;;;;;;;70.97;31.88;;;76.90;2176.00;;;;;;5081912;28;20027;-70
2021/01/13 03:55:26;;;;;;;62.45;28.40;;;77.00;2176.00;;;;;;5096330;28;20070;-70
2021/01/13 03:57:58;;;;;;;71.65;33.53;;;77.00;2150.40;;;;;;5116432;28;20022;-71
2021/01/13 04:00:40;;;;;;;63.42;28.52;;;77.00;2150.40;;;;;;5098342;28;20377;-70
2021/01/13 04:03:12;;;;;;;67.82;30.98;;;77.10;2150.40;;;;;;5091851;28;20032;-73
2021/01/13 04:05:51;;;;;;;75.15;34.38;;;77.10;2150.40;;;;;;5115795;28;20054;-70
2021/01/13 04:08:18;;;;;;;64.53;29.15;;;77.10;2150.40;;;;;;5107704;28;20107;-71
2021/01/13 04:10:44;;;;;;;65.78;30.38;;;77.20;2150.40;;;;;;5095775;28;20124;-70
2021/01/13 04:13:33;;;;;;;68.97;30.85;;;77.10;2150.40;;;;;;5097551;28;20060;-71
2021/01/13 04:16:00;;;;;;;64.70;30.05;;;77.20;2150.40;;;;;;5094353;28;20078;-71
2021/01/13 04:18:26;;;;;;;65.72;30.35;;;77.30;2124.80;;;;;;5098924;28;20544;-71
2021/01/13 04:20:52;;;;;;;64.65;28.85;;;77.30;2124.80;;;;;;5109847;28;20024;-72
2021/01/13 04:23:18;;;;;;;66.50;30.08;;;77.30;2099.20;;;;;;5098249;28;20504;-71
2021/01/13 04:25:44;;;;;;;68.35;30.90;;;77.30;2099.20;;;;;;5116079;28;20052;-68
2021/01/13 04:28:10;;;;;;;67.18;30.50;;;77.30;2099.20;;;;;;5115918;28;20028;-70
2021/01/13 04:30:36;;;;;;;62.15;26.60;;;77.30;2124.80;;;;;;5108133;28;20046;-70
2021/01/13 04:33:02;;;;;;;59.42;27.02;;;77.30;2073.60;;;;;;5108741;28;20024;-70
2021/01/13 04:35:28;;;;;;;67.85;28.35;;;77.20;2099.20;;;;;;5115644;28;20049;-68
2021/01/13 04:37:56;;;;;;;57.63;27.58;;;77.20;2099.20;;;;;;5115381;28;20462;-68
2021/01/13 04:40:33;;;;;;;63.45;28.15;;;77.20;2099.20;;;;;;5115583;28;20073;-71
2021/01/13 04:43:12;;;;;;;58.72;29.20;;;77.20;2099.20;;;;;;5115770;28;20027;-71
2021/01/13 04:45:45;;;;;;;69.47;29.80;;;77.20;2124.80;;;;;;5115412;28;20019;-71
2021/01/13 04:48:16;;;;;;;60.55;26.33;;;77.20;2099.20;;;;;;5103995;28;20370;-69
2021/01/13 04:50:48;;;;;;;60.58;27.63;;;77.30;2099.20;;;;;;5113645;28;20026;-68
2021/01/13 04:53:23;;;;;;;63.45;27.65;;;77.30;2124.80;;;;;;5107916;28;20019;-69
2021/01/13 04:55:56;;;;;;;59.22;27.05;;;77.20;2124.80;;;;;;5094732;28;20032;-69
2021/01/13 04:58:48;;;;;;;67.25;29.80;;;77.20;2150.40;;;;;;5094768;28;20095;-69
2021/01/13 05:01:13;;;;;;;66.88;30.10;;;77.30;2150.40;;;;;;5094590;28;20025;-70
2021/01/13 05:03:39;;;;;;;69.00;30.60;;;77.20;2176.00;;;;;;5094887;28;20027;-69
2021/01/13 05:06:42;;;;;;;73.40;33.28;;;77.20;2201.60;;;;;;5094731;28;20040;-69
2021/01/13 05:09:10;;;;;;;68.65;30.85;;;77.20;2176.00;;;;;;5094414;28;20164;-68
2021/01/13 05:11:47;;;;;;;84.20;34.30;;;77.20;2176.00;;;;;;5094580;28;20024;-67
2021/01/13 05:14:14;;;;;;;77.22;35.95;;;77.20;2176.00;;;;;;5094583;28;20069;-68
2021/01/13 05:17:03;;;;;;;81.15;35.90;;;77.10;2176.00;;;;;;5094554;28;20024;-70
2021/01/13 05:19:32;;;;;;;75.47;34.38;;;77.10;2201.60;;;;;;5094385;28;20375;-70
2021/01/13 05:22:00;;;;;;;84.25;36.58;;;77.00;2227.20;;;;;;5094701;28;20040;-70
2021/01/13 05:24:28;;;;;;;82.13;35.28;;;77.20;2201.60;;;;;;5076084;28;20047;-70
2021/01/13 05:27:01;;;;;;;80.43;36.40;;;77.10;2201.60;;;;;;5094087;28;20016;-69
2021/01/13 05:29:34;;;;;;;67.25;31.25;;;77.20;2201.60;;;;;;5094330;28;20032;-66
2021/01/13 05:32:01;;;;;;;76.95;33.60;;;77.10;2176.00;;;;;;5080713;28;20032;-70
2021/01/13 05:34:31;;;;;;;73.03;31.35;;;77.10;2201.60;;;;;;5094642;28;20109;-69
2021/01/13 05:37:16;;;;;;;68.35;31.55;;;77.10;2176.00;;;;;;5094104;28;20028;-70
2021/01/13 05:39:44;;;;;;;74.00;32.38;;;77.00;2176.00;;;;;;5094019;28;20027;-68
2021/01/13 05:42:10;;;;;;;76.50;32.08;;;76.90;2201.60;;;;;;5094418;28;20093;-70
2021/01/13 05:44:36;;;;;;;68.78;29.65;;;77.00;2176.00;;;;;;5094222;28;20027;-69
2021/01/13 05:47:06;;;;;;;69.97;31.10;;;77.10;2176.00;;;;;;5093570;28;20031;-71
2021/01/13 05:49:33;;;;;;;79.07;33.97;;;77.00;2176.00;;;;;;5094076;28;20036;-70
2021/01/13 05:52:08;;;;;;;75.07;33.35;;;77.00;2201.60;;;;;;5093725;28;20497;-69
2021/01/13 05:54:38;;;;;;;76.85;33.10;;;77.00;2176.00;;;;;;5093685;28;20036;-70
2021/01/13 05:57:04;;;;;;;73.90;32.70;;;76.90;2201.60;;;;;;5093398;28;20424;-69
2021/01/13 05:59:31;;;;;;;90.20;37.13;;;51.90;2227.20;;;;;;5093925;28;20081;-68
2021/01/13 06:01:58;;;;;;;81.78;36.42;;;51.80;2227.20;;;;;;5093443;28;20031;-69
2021/01/13 06:04:25;;;;;;;87.35;36.20;;;51.90;2227.20;;;;;;5093541;28;20059;-70
2021/01/13 06:07:18;;;;;;;77.38;37.17;;;52.10;2227.20;;;;;;5087744;28;20023;-70
2021/01/13 06:09:44;;;;;;;83.65;38.53;;;52.10;2227.20;;;;;;5098191;28;20032;-71
2021/01/13 06:12:22;;;;;;;82.60;35.03;;;76.80;2227.20;;;;;;5098210;28;20023;-70
2021/01/13 06:14:52;;;;;;;84.68;36.60;;;76.90;2227.20;;;;;;5093447;28;20024;-69
2021/01/13 06:17:22;;;;;;;84.25;40.08;;;76.90;2227.20;;;;;;5074955;28;20032;-73
2021/01/13 06:19:53;;;;;;;84.15;38.53;;;76.90;2227.20;;;;;;5094552;28;20458;-60
2021/01/13 06:22:29;;;;;;;70.57;31.20;;;76.90;2227.20;;;;;;5091933;28;20020;-62
2021/01/13 06:24:59;;;;;;;67.30;29.83;;;76.90;2201.60;;;;;;5093541;28;20020;-60
2021/01/13 06:27:55;;;;;;;73.40;35.25;;;76.80;2201.60;;;;;;5092706;28;20031;-61
2021/01/13 06:30:29;;;;;;;63.45;29.65;;;76.80;2227.20;;;;;;5102816;28;20020;-61
2021/01/13 06:33:18;;;;;;;71.13;34.08;;;76.80;2227.20;;;;;;5105365;28;20019;-62
2021/01/13 06:35:43;;;;;;;73.22;34.47;;;52.10;2227.20;;;;;;5113386;28;20114;-62
2021/01/13 06:38:16;;;;;;;71.82;32.75;;;76.90;2227.20;;;;;;5113317;28;20429;-63
2021/01/13 06:40:42;;;;;;;72.63;30.58;;;77.00;2227.20;;;;;;5085269;28;20019;-61
2021/01/13 06:43:14;;;;;;;72.82;33.08;;;76.90;2227.20;;;;;;5113082;28;20466;-62
2021/01/13 06:45:40;;;;;;;72.57;33.28;;;76.90;2227.20;;;;;;5109730;28;20027;-62
2021/01/13 06:48:07;;;;;;;80.40;35.88;;;77.00;2201.60;;;;;;5104118;28;20066;-63
2021/01/13 06:50:41;;;;;;;78.88;36.28;;;77.00;2201.60;;;;;;5109149;28;20049;-62
2021/01/13 06:53:11;;;;;;;78.10;36.10;;;77.10;2201.60;;;;;;5099747;28;20024;-63
2021/01/13 06:55:39;;;;;;;83.03;36.13;;;77.20;2201.60;;;;;;5100243;28;20035;-62
2021/01/13 06:58:18;;;;;;;75.93;35.70;;;77.10;2201.60;;;;;;5103776;28;20039;-62
2021/01/13 07:00:47;;;;;;;79.72;33.25;;;77.00;2201.60;;;;;;5106400;28;20020;-63
2021/01/13 07:03:29;;;;;;;76.63;35.90;;;77.00;2201.60;;;;;;5092649;28;20458;-62
2021/01/13 07:06:15;;;;;;;76.40;34.80;;;77.00;2201.60;;;;;;5092744;28;20075;-63
2021/01/13 07:08:41;;;;;;;80.53;37.90;;;76.90;2201.60;;;;;;5092241;28;20118;-62
2021/01/13 07:11:09;;;;;;;91.35;39.00;;;76.90;2201.60;;;;;;5092402;28;20031;-63
2021/01/13 07:13:38;;;;;;;91.15;40.30;;;76.90;2227.20;;;;;;5092398;28;20366;-62
2021/01/13 07:16:05;;;;;;;94.05;44.45;;;77.00;2201.60;;;;;;5092832;28;20068;-63
2021/01/13 07:18:35;;;;;;;88.47;37.78;;;77.10;2201.60;;;;;;5092563;28;20028;-64
2021/01/13 07:21:07;;;;;;;91.78;38.72;;;77.10;2176.00;;;;;;5092576;28;20030;-63
2021/01/13 07:23:33;;;;;;;85.20;37.88;;;77.10;2176.00;;;;;;5093796;28;20039;-65
2021/01/13 07:26:00;;;;;;;89.40;38.38;;;77.10;2176.00;;;;;;5096758;28;20031;-62
2021/01/13 07:28:26;;;;;;;84.97;37.92;;;77.10;2176.00;;;;;;5095661;28;20023;-64
2021/01/13 07:30:53;;;;;;;83.07;37.88;;;77.20;2176.00;;;;;;5097146;28;20035;-62
2021/01/13 07:33:20;;;;;;;76.10;37.67;;;77.40;2150.40;;;;;;5096617;28;20046;-63
2021/01/13 07:35:50;;;;;;;94.00;41.55;;;77.50;2124.80;;;;;;5096830;28;20402;-64
2021/01/13 07:38:17;;;;;;;84.38;36.20;;;77.50;2150.40;;;;;;5082264;28;20031;-63
2021/01/13 07:41:02;;;;;;;83.55;34.80;;;77.60;2099.20;;;;;;5096605;28;20032;-64
2021/01/13 07:44:02;;;;;;;82.13;35.92;;;77.60;2099.20;;;;;;5083009;28;20417;-65
2021/01/13 07:46:33;;;;;;;88.38;37.75;;;77.40;2124.80;;;;;;5096060;28;20024;-63
2021/01/13 07:49:22;;;;;;;87.28;36.22;;;77.40;2124.80;;;;;;5095841;28;20150;-63
2021/01/13 07:51:56;;;;;;;96.10;41.17;;;77.30;2150.40;;;;;;5096232;28;20029;-64
2021/01/13 07:54:34;;;;;;;104.63;44.85;;;77.30;2150.40;;;;;;5078080;28;20382;-66
2021/01/13 07:57:02;;;;;;;96.72;44.08;;;77.20;2176.00;;;;;;5077669;28;20453;-62
2021/01/13 07:59:45;;;;;;;107.28;46.75;;;77.20;2176.00;;;;;;5096129;28;20035;-66
2021/01/13 08:02:29;;;;;;;109.80;45.70;;;77.30;2176.00;;;;;;5081125;28;20024;-62
2021/01/13 08:05:23;;;;;;;106.75;46.88;;;77.20;2201.60;;;;;;5096223;28;20055;-62
2021/01/13 08:08:11;;;;;;;109.22;44.83;;;77.20;2201.60;;;;;;5077772;28;20106;-67
2021/01/13 08:10:39;;;;;;;96.15;40.00;;;77.20;2201.60;;;;;;5095754;28;20488;-64
2021/01/13 08:13:26;;;;;;;98.55;42.95;;;77.30;2227.20;;;;;;5076505;28;20028;-61
2021/01/13 08:16:24;;;;;;;97.68;41.85;;;77.00;2201.60;;;;;;5096401;28;20040;-63
2021/01/13 08:19:20;;;;;;;104.65;41.28;;;77.00;2201.60;;;;;;5095866;28;20035;-63
2021/01/13 08:22:01;;;;;;;100.28;39.83;;;76.90;2201.60;;;;;;5095587;28;20028;-61
2021/01/13 08:24:33;;;;;;;102.60;42.65;;;76.80;2227.20;;;;;;5095683;28;20031;-61
2021/01/13 08:27:03;;;;;;;98.20;44.10;;;52.10;2227.20;;;;;;5095355;28;20020;-68
2021/01/13 08:29:39;;;;;;;115.70;53.40;;;52.10;2227.20;;;;;;5083653;28;20024;-61
2021/01/13 08:32:09;;;;;;;117.80;53.80;;;52.10;2227.20;;;;;;5086081;28;20024;-57
2021/01/13 08:34:45;;;;;;;128.90;64.10;;;52.10;2227.20;;;;;;5092974;28;20114;-59
2021/01/13 08:37:12;;;;;;;122.68;54.20;;;52.10;2227.20;;;;;;5094310;28;20464;-56
2021/01/13 08:39:42;;;;;;;114.60;47.50;;;76.80;2227.20;;;;;;5093667;28;20034;-57
2021/01/13 08:42:24;;;;;;;112.20;47.85;;;76.80;2227.20;;;;;;5093918;28;20082;-59
2021/01/13 08:44:56;;;;;;;115.13;50.97;;;52.10;2227.20;;;;;;5092868;28;20022;-61
2021/01/13 08:47:23;;;;;;;118.45;54.67;;;76.80;2227.20;;;;;;5092470;28;20024;-62
2021/01/13 08:49:50;;;;;;;112.05;48.00;;;76.80;2227.20;;;;;;5093443;28;20374;-61
2021/01/13 08:52:26;;;;;;;113.32;46.33;;;76.80;2201.60;;;;;;5091934;28;20046;-62
2021/01/13 08:54:54;;;;;;;105.63;48.17;;;76.90;2227.20;;;;;;5092092;28;20115;-62
2021/01/13 08:57:21;;;;;;;121.55;51.47;;;76.90;2201.60;;;;;;5093195;28;20040;-62
2021/01/13 08:59:48;;;;;;;123.30;51.50;;;76.80;2201.60;;;;;;5074961;28;20032;-63
2021/01/13 09:02:15;;;;;;;123.65;54.72;;;52.00;2227.20;;;;;;5093005;28;20450;-58
2021/01/13 09:04:53;;;;;;;134.70;57.95;;;51.90;2227.20;;;;;;5092708;28;20044;-60
2021/01/13 09:07:27;;;;;;;127.30;54.87;;;52.00;2227.20;;;;;;5078065;28;20040;-61
2021/01/13 09:10:14;;;;;;;135.15;62.97;;;52.00;2227.20;;;;;;5105035;28;20133;-60
2021/01/13 09:12:40;;;;;;;120.68;54.30;;;77.00;2201.60;;;;;;5106589;28;20031;-61
2021/01/13 09:15:06;;;;;;;115.85;49.53;;;77.10;2150.40;;;;;;5099489;28;20024;-69
2021/01/13 09:17:33;;;;;;;130.30;54.15;;;77.20;2150.40;;;;;;5093262;28;20034;-60
2021/01/13 09:20:02;;;;;;;106.57;44.92;;;77.20;2176.00;;;;;;5095207;28;20123;-68
2021/01/13 09:22:44;;;;;;;125.53;57.42;;;76.90;2176.00;;;;;;5094334;28;20038;-62
2021/01/13 09:25:30;;;;;;;130.93;56.28;;;52.00;2227.20;;;;;;5091477;28;20024;-61
2021/01/13 09:28:00;;;;;;;136.15;55.03;;;52.10;2227.20;;;;;;5099128;28;20035;-59
2021/01/13 09:30:41;;;;;;;120.78;52.00;;;52.00;2227.20;;;;;;5099064;28;20540;-60
2021/01/13 09:33:10;;;;;;;136.23;56.63;;;76.80;2201.60;;;;;;5091312;28;20463;-59
2021/01/13 09:35:35;;;;;;;;;;;76.80;2201.60;;;;;;5095801;28;20089;-57
2021/01/13 09:38:10;;;;;;;130.38;57.70;;;76.80;2201.60;;;;;;5092666;28;20350;-58
2021/01/13 09:40:56;;;;;;;132.55;60.90;;;76.80;2227.20;;;;;;5097099;28;20436;-64
2021/01/13 09:43:37;;;;;;;136.95;64.15;;;52.10;2227.20;;;;;;5111177;28;20030;-61
2021/01/13 09:46:08;;;;;;;131.93;63.13;;;76.80;2227.20;;;;;;5096161;28;20027;-62
2021/01/13 09:48:35;;;;;;;140.80;65.30;;;76.80;2227.20;;;;;;5101781;28;20085;-61
2021/01/13 09:51:06;;;;;;;148.05;67.30;;;52.10;2227.20;;;;;;5110043;28;20541;-56
2021/01/13 09:53:46;;;;;;;140.10;63.05;;;76.90;2227.20;;;;;;5095054;28;20559;-61
2021/01/13 09:56:12;;;;;;;133.82;55.63;;;77.10;2201.60;;;;;;5107891;28;20464;-59
2021/01/13 09:58:48;;;;;;;124.88;55.63;;;77.40;2150.40;;;;;;5108556;28;20099;-57
2021/01/13 10:01:21;;;;;;;125.32;60.63;;;77.70;2099.20;;;;;;5090710;28;20501;-64
2021/01/13 10:03:50;;;;;;;129.32;58.20;;;102.80;2048.00;;;;;;5106574;28;20039;-66
2021/01/13 10:06:18;;;;;;;120.18;55.35;;;103.20;1996.80;;;;;;5110099;28;20043;-58
2021/01/13 10:08:44;;;;;;;122.87;57.37;;;103.20;1971.20;;;;;;5092801;28;20077;-60
2021/01/13 10:11:11;;;;;;;109.13;53.28;;;103.10;1996.80;;;;;;5098378;28;20292;-59
2021/01/13 10:13:39;;;;;;;135.50;59.25;;;102.80;2022.40;;;;;;5092294;28;20491;-59
2021/01/13 10:16:06;;;;;;;121.82;56.38;;;102.70;2073.60;;;;;;5091858;28;20039;-60
2021/01/13 10:18:33;;;;;;;123.18;56.83;;;102.70;2048.00;;;;;;5091086;28;20020;-61
2021/01/13 10:21:00;;;;;;;119.07;52.33;;;102.70;2073.60;;;;;;5090408;28;20024;-60
2021/01/13 10:23:31;;;;;;;113.97;50.85;;;102.60;2073.60;;;;;;5091890;28;20056;-58
2021/01/13 10:26:09;;;;;;;121.88;53.05;;;102.40;2073.60;;;;;;5091615;28;20047;-59
2021/01/13 10:28:36;;;;;;;112.03;51.03;;;102.60;2073.60;;;;;;5089104;28;20440;-58
2021/01/13 10:31:04;;;;;;;112.78;50.38;;;102.80;2048.00;;;;;;5085034;28;20480;-58
2021/01/13 10:33:54;;;;;;;111.78;54.28;;;103.10;1996.80;;;;;;5110913;28;20045;-58
2021/01/13 10:36:31;;;;;;;100.97;45.33;;;103.00;2022.40;;;;;;5107209;28;20043;-58
2021/01/13 10:39:04;;;;;;;114.85;53.70;;;102.80;2022.40;;;;;;5109825;28;20102;-59
2021/01/13 10:41:32;;;;;;;112.65;51.13;;;102.60;2073.60;;;;;;5105916;28;20027;-61
2021/01/13 10:44:12;;;;;;;113.10;51.17;;;102.40;2099.20;;;;;;5098965;28;20020;-61
2021/01/13 10:46:58;;;;;;;116.53;55.72;;;102.50;2073.60;;;;;;5094311;28;20020;-61
2021/01/13 10:49:36;;;;;;;106.15;46.53;;;102.50;2099.20;;;;;;5090496;28;20026;-63
2021/01/13 10:52:14;;;;;;;110.97;53.72;;;102.60;2073.60;;;;;;5090837;28;20500;-61
2021/01/13 10:54:42;;;;;;;113.77;52.30;;;102.60;2073.60;;;;;;5091151;28;20144;-62
2021/01/13 10:57:11;;;;;;;119.60;56.78;;;102.60;2073.60;;;;;;5090983;28;20031;-63
2021/01/13 10:59:38;;;;;;;115.18;49.03;;;102.50;2099.20;;;;;;5090265;28;20043;-66
2021/01/13 11:02:07;;;;;;;118.32;56.50;;;102.40;2099.20;;;;;;5094633;28;20032;-65
2021/01/13 11:04:37;;;;;;;107.75;51.92;;;102.50;2099.20;;;;;;5103520;28;20047;-62
2021/01/13 11:07:23;;;;;;;117.63;52.42;;;102.70;2073.60;;;;;;5110859;28;20059;-62
2021/01/13 11:09:51;;;;;;;112.38;51.17;;;102.70;2073.60;;;;;;5111290;28;20028;-65
2021/01/13 11:12:24;;;;;;;105.13;51.08;;;102.50;2099.20;;;;;;5107357;28;20115;-64
2021/01/13 11:14:52;;;;;;;111.00;52.25;;;77.60;2150.40;;;;;;5104450;28;20031;-63
2021/01/13 11:17:20;;;;;;;108.80;47.78;;;77.50;2150.40;;;;;;5109334;28;20015;-60
2021/01/13 11:19:57;;;;;;;104.57;47.95;;;77.50;2176.00;;;;;;5098451;28;20516;-63
2021/01/13 11:22:53;;;;;;;106.50;46.25;;;77.30;2176.00;;;;;;5072116;28;20405;-61
2021/01/13 11:25:30;;;;;;;106.28;53.45;;;77.20;2201.60;;;;;;5086757;28;20028;-64
2021/01/13 11:28:07;;;;;;;112.50;52.25;;;77.40;2201.60;;;;;;5089888;28;20028;-61
2021/01/13 11:30:54;;;;;;;113.90;54.53;;;77.70;2150.40;;;;;;5090632;28;20115;-60
2021/01/13 11:33:22;;;;;;;115.93;55.20;;;77.70;2124.80;;;;;;5089835;28;20039;-61
2021/01/13 11:35:49;;;;;;;115.05;54.90;;;102.40;2124.80;;;;;;5090192;28;20028;-61
2021/01/13 11:38:33;;;;;;;108.28;49.85;;;77.70;2124.80;;;;;;5100303;28;20018;-61
2021/01/13 11:41:42;;;;;;;105.43;49.50;;;77.60;2150.40;;;;;;5104770;28;20028;-61
2021/01/13 11:44:35;;;;;;;113.93;53.83;;;77.70;2124.80;;;;;;5089980;28;20132;-62
2021/01/13 11:47:06;;;;;;;103.53;52.92;;;77.50;2176.00;;;;;;5079604;28;20044;-59
2021/01/13 11:49:39;;;;;;;117.20;57.20;;;77.50;2176.00;;;;;;5087294;28;20024;-61
2021/01/13 11:52:08;;;;;;;116.00;52.60;;;77.50;2176.00;;;;;;5071594;28;20605;-62
2021/01/13 11:54:35;;;;;;;;;;;77.60;2150.40;;;;;;5101019;28;20073;-63
2021/01/13 11:57:24;;;;;;;101.07;49.95;;;77.50;2176.00;;;;;;5104245;28;20369;-61
2021/01/13 12:00:11;;;;;;;93.60;45.13;;;77.60;2176.00;;;;;;5015418;28;20073;-66
2021/01/13 12:02:37;;;;;;;88.32;45.58;;;102.40;2124.80;;;;;;5026400;28;20029;-61
2021/01/13 12:05:04;;;;;;;99.07;51.70;;;102.40;2124.80;;;;;;5026876;28;20053;-63
2021/01/13 12:07:29;;;;;;;92.63;46.42;;;102.60;2099.20;;;;;;5027423;28;20109;-58
2021/01/13 12:10:12;;;;;;;80.22;40.90;;;102.60;2099.20;;;;;;5027206;28;20112;-57
2021/01/13 12:12:38;;;;;;;87.45;45.97;;;102.70;2073.60;;;;;;5026888;28;20059;-61
2021/01/13 12:15:06;;;;;;;89.47;44.95;;;102.70;2099.20;;;;;;5031118;28;20042;-60
2021/01/13 12:17:34;;;;;;;73.25;37.95;;;102.70;2099.20;;;;;;5027787;28;20034;-68
2021/01/13 12:20:00;;;;;;;80.38;40.92;;;102.50;2099.20;;;;;;5029618;28;20041;-61
2021/01/13 12:22:36;;;;;;;81.78;44.17;;;102.40;2099.20;;;;;;5029334;28;20503;-61
2021/01/13 12:25:04;;;;;;;76.68;39.90;;;102.40;2150.40;;;;;;5035510;28;20119;-62
2021/01/13 12:27:30;;;;;;;78.25;40.80;;;102.40;2150.40;;;;;;5032791;28;20109;-63
2021/01/13 12:30:12;;;;;;;68.63;36.95;;;102.60;2150.40;;;;;;5032711;28;20079;-62
2021/01/13 12:32:39;;;;;;;81.47;39.90;;;102.70;2073.60;;;;;;5032566;28;20119;-63